Time;durP1;ratioP1;P1;durP2;ratioP2;P2;SDS_P1;SDS_P2;PMS_P1;PMS_P2;Temp;Humidity;BMP_temperature;BMP_pressure;BME280_temperature;BME280_humidity;BME280_pressure;Samples;Min_cycle;Max_cycle;Signal;HPM_P1;HPM_P2
2021/01/31 00:00:58;;;;;;;1.98;1.33;;;;;;;2.57;99.29;92037.81;5081463;28;20085;-86
2021/01/31 00:03:24;;;;;;;;;;;;;;;2.66;97.30;92039.22;5072679;28;20103;-85
2021/01/31 00:05:53;;;;;;;3.33;1.50;;;;;;;2.60;98.66;92034.13;5089893;28;20368;-85
2021/01/31 00:08:21;;;;;;;3.60;1.05;;;;;;;2.58;97.13;92024.16;5075817;28;20123;-85
2021/01/31 00:10:48;;;;;;;5.65;0.75;;;;;;;2.69;96.53;92032.19;5071840;28;20055;-85
2021/01/31 00:13:16;;;;;;;0.80;0.68;;;;;;;2.65;96.19;92019.88;5070489;28;20052;-85
2021/01/31 00:15:45;;;;;;;4.07;0.80;;;;;;;2.66;95.20;92026.53;5070445;28;20102;-86
2021/01/31 00:18:12;;;;;;;3.22;1.02;;;;;;;2.77;96.43;92042.94;5071235;28;20056;-86
2021/01/31 00:20:39;;;;;;;5.78;1.17;;;;;;;2.69;96.07;92027.13;5069470;28;20569;-85
2021/01/31 00:23:06;;;;;;;1.40;0.93;;;;;;;2.74;96.63;92050.94;5069718;28;20044;-85
2021/01/31 00:25:33;;;;;;;1.35;0.68;;;;;;;2.77;96.65;92054.84;5071340;28;20086;-85
2021/01/31 00:27:59;;;;;;;0.90;0.63;;;;;;;2.73;95.49;92044.28;5071414;28;20052;-85
2021/01/31 00:30:29;;;;;;;;;;;;;;;2.82;94.50;92052.50;5070369;28;20525;-86
2021/01/31 00:32:56;;;;;;;2.42;0.80;;;;;;;2.80;94.88;92057.00;5070239;28;19928;-86
2021/01/31 00:35:24;;;;;;;3.22;1.08;;;;;;;2.78;95.96;92054.66;5069663;28;20505;-86
2021/01/31 00:37:51;;;;;;;2.78;0.70;;;;;;;2.63;93.73;92039.59;5069581;28;20060;-87
2021/01/31 00:40:17;;;;;;;4.38;0.90;;;;;;;2.86;92.61;92058.00;5070790;28;20432;-87
2021/01/31 00:42:44;;;;;;;1.73;0.95;;;;;;;2.86;93.49;92063.09;5071239;28;20052;-86
2021/01/31 00:45:12;;;;;;;2.53;0.80;;;;;;;2.74;92.54;92045.09;5070422;28;20048;-86
2021/01/31 00:47:40;;;;;;;3.00;1.58;;;;;;;2.84;91.53;92054.88;5058666;28;20087;-85
2021/01/31 00:50:08;;;;;;;1.67;0.50;;;;;;;2.96;91.91;92060.94;5089620;28;20040;-85
2021/01/31 00:52:34;;;;;;;2.90;0.88;;;;;;;3.02;91.59;92055.09;5087941;28;20062;-85
2021/01/31 00:55:00;;;;;;;;;;;;;;;3.09;90.60;92052.59;5074700;28;20500;-86
2021/01/31 00:57:26;;;;;;;1.17;0.68;;;;;;;3.04;90.78;92047.31;5071197;28;19951;-85
2021/01/31 00:59:52;;;;;;;2.97;0.88;;;;;;;3.10;90.63;92046.53;5071493;28;20045;-84
2021/01/31 01:02:21;;;;;;;3.20;0.63;;;;;;;3.18;90.93;92045.56;5091101;28;20048;-85
2021/01/31 01:04:49;;;;;;;1.33;0.60;;;;;;;3.17;89.62;92041.47;5070220;28;20045;-85
2021/01/31 01:07:16;;;;;;;2.53;1.05;;;;;;;3.31;89.70;92029.59;5068504;28;20455;-85
2021/01/31 01:09:42;;;;;;;2.33;0.90;;;;;;;3.30;89.87;92025.47;5069613;28;20052;-84
2021/01/31 01:12:10;;;;;;;1.98;1.48;;;;;;;3.23;89.68;92022.16;5070939;28;20051;-86
2021/01/31 01:14:36;;;;;;;2.25;1.35;;;;;;;3.35;89.27;92025.69;5069863;28;20052;-86
2021/01/31 01:17:02;;;;;;;;;;;;;;;3.26;91.66;92020.03;5058229;28;20048;-84
2021/01/31 01:19:29;;;;;;;6.00;0.95;;;;;;;3.15;92.04;92033.28;5070284;28;19924;-84
2021/01/31 01:21:57;;;;;;;1.55;0.90;;;;;;;3.15;90.22;92025.66;5070043;28;20473;-84
2021/01/31 01:24:23;;;;;;;9.93;0.60;;;;;;;3.06;89.63;92020.00;5070666;28;20056;-84
2021/01/31 01:26:49;;;;;;;;;;;;;;;3.20;90.33;92025.88;5071323;28;20048;-83
2021/01/31 01:29:16;;;;;;;2.47;0.82;;;;;;;3.14;90.64;92036.81;5078007;28;19923;-85
2021/01/31 01:31:42;;;;;;;1.23;0.93;;;;;;;3.14;89.88;92029.19;5089563;28;20044;-84
2021/01/31 01:34:09;;;;;;;2.53;1.27;;;;;;;3.18;91.67;92032.88;5090572;28;20056;-84
2021/01/31 01:36:35;;;;;;;3.22;1.00;;;;;;;3.07;92.96;92024.84;5069582;28;20049;-85
2021/01/31 01:39:03;;;;;;;2.22;1.52;;;;;;;2.97;94.50;92028.75;5068706;28;20090;-83
2021/01/31 01:41:36;;;;;;;10.25;1.40;;;;;;;2.95;93.30;92026.41;5070526;28;20412;-84
2021/01/31 01:44:03;;;;;;;3.70;1.27;;;;;;;2.98;94.48;92023.50;5069588;28;20515;-83
2021/01/31 01:46:38;;;;;;;9.70;1.92;;;;;;;3.03;92.57;92021.16;5089105;28;20048;-83
2021/01/31 01:49:11;;;;;;;2.77;1.57;;;;;;;3.01;91.80;92012.19;5074099;28;20044;-84
2021/01/31 01:51:40;;;;;;;2.53;1.05;;;;;;;2.91;94.09;92002.38;5087088;28;20725;-83
2021/01/31 01:54:12;;;;;;;2.42;1.08;;;;;;;2.99;93.87;92004.75;5061191;28;20044;-83
2021/01/31 01:56:43;;;;;;;0.85;0.47;;;;;;;3.01;92.86;92007.13;5074539;28;20048;-85
2021/01/31 01:59:10;;;;;;;1.20;0.68;;;;;;;3.04;92.05;92012.56;5074416;28;20099;-83
2021/01/31 02:01:42;;;;;;;2.03;1.08;;;;;;;2.99;92.60;92004.75;5073507;28;20060;-83
2021/01/31 02:04:09;;;;;;;2.80;0.85;;;;;;;3.12;92.71;92020.97;5073706;28;20414;-82
2021/01/31 02:06:35;;;;;;;;;;;;;;;3.15;92.02;92012.97;5074761;28;20048;-83
2021/01/31 02:09:01;;;;;;;2.70;1.20;;;;;;;3.10;92.30;92013.53;5074230;28;20022;-83
2021/01/31 02:11:28;;;;;;;;;;;;;;;3.09;91.33;92017.06;5074675;28;20098;-83
2021/01/31 02:13:58;;;;;;;3.53;1.10;;;;;;;3.04;91.91;92012.56;5074100;28;19921;-83
2021/01/31 02:16:33;;;;;;;2.13;1.08;;;;;;;3.07;91.34;92021.56;5074321;28;20055;-83
2021/01/31 02:19:20;;;;;;;4.82;2.92;;;;;;;3.12;90.52;92028.59;5074166;28;20095;-83
2021/01/31 02:22:04;;;;;;;5.25;2.35;;;;;;;3.12;89.40;92014.16;5073931;28;20056;-83
2021/01/31 02:25:06;;;;;;;6.32;2.03;;;;;;;2.79;90.46;91997.88;5073734;28;20075;-83
2021/01/31 02:28:27;;;;;;;2.85;1.35;;;;;;;2.79;91.71;92002.94;5073357;28;20053;-84
2021/01/31 02:31:44;;;;;;;3.47;1.45;;;;;;;2.84;90.28;92009.22;5074546;28;20401;-85
2021/01/31 02:34:16;;;;;;;2.30;1.02;;;;;;;2.92;89.20;92004.75;5009485;28;20046;-84
2021/01/31 02:36:53;;;;;;;3.42;1.25;;;;;;;3.03;89.17;92021.16;5011377;28;20494;-83
2021/01/31 02:39:32;;;;;;;4.75;1.35;;;;;;;3.05;88.85;92011.59;5043865;28;20412;-83
2021/01/31 02:42:21;;;;;;;2.35;1.00;;;;;;;2.88;90.64;91985.03;5073709;28;20041;-84
2021/01/31 02:44:58;;;;;;;1.65;1.10;;;;;;;3.00;89.39;91982.72;5073483;28;20051;-85
2021/01/31 02:47:28;;;;;;;1.60;0.80;;;;;;;3.03;88.47;91983.13;5077249;28;20048;-85
2021/01/31 02:50:04;;;;;;;1.00;0.75;;;;;;;3.16;87.48;91977.25;5093797;28;20044;-84
2021/01/31 02:52:36;;;;;;;2.22;1.17;;;;;;;3.18;87.45;91982.94;5064349;28;20053;-85
2021/01/31 02:55:08;;;;;;;0.43;0.30;;;;;;;3.23;86.29;91984.09;5085034;28;20052;-85
2021/01/31 02:57:39;;;;;;;0.70;0.40;;;;;;;3.18;88.00;91977.84;5092563;28;20047;-84
2021/01/31 03:00:10;;;;;;;0.60;0.40;;;;;;;3.04;89.80;91968.66;5087137;28;20058;-84
2021/01/31 03:02:44;;;;;;;1.40;0.50;;;;;;;3.15;87.16;91975.69;5072006;28;20500;-84
2021/01/31 03:05:15;;;;;;;1.80;1.17;;;;;;;3.06;88.94;91964.19;5072075;28;20049;-84
2021/01/31 03:07:48;;;;;;;0.70;0.70;;;;;;;3.14;88.20;91974.13;5071315;28;20052;-85
2021/01/31 03:10:21;;;;;;;0.60;0.28;;;;;;;3.29;86.86;91988.41;5071002;28;20413;-84
2021/01/31 03:12:50;;;;;;;2.00;0.80;;;;;;;2.83;87.20;91926.50;5071298;28;20048;-86
2021/01/31 03:15:24;;;;;;;0.52;0.30;;;;;;;3.30;85.83;91979.81;5091922;28;20070;-85
2021/01/31 03:17:57;;;;;;;1.73;0.65;;;;;;;3.40;87.12;91981.94;5072215;28;20079;-85
2021/01/31 03:20:29;;;;;;;1.48;0.32;;;;;;;3.33;85.28;91952.25;5071920;28;21336;-84
2021/01/31 03:23:02;;;;;;;0.60;0.30;;;;;;;3.45;86.11;91962.63;5071595;28;20052;-85
2021/01/31 03:25:35;;;;;;;1.25;0.40;;;;;;;3.49;86.31;91952.84;5071704;28;20480;-86
2021/01/31 03:28:01;;;;;;;1.13;0.40;;;;;;;3.41;87.34;91956.38;5071588;28;20056;-85
2021/01/31 03:30:27;;;;;;;;;;;;;;;3.41;87.23;91935.25;5072078;28;20447;-85
2021/01/31 03:32:59;;;;;;;2.05;0.63;;;;;;;3.34;87.41;91932.75;5071660;28;19931;-85
2021/01/31 03:35:30;;;;;;;0.30;0.20;;;;;;;3.20;88.48;91927.66;5071535;28;20044;-84
2021/01/31 03:38:08;;;;;;;0.85;0.35;;;;;;;3.32;87.69;91940.56;5071712;28;20048;-85
2021/01/31 03:40:35;;;;;;;3.13;0.40;;;;;;;3.28;88.70;91933.53;5071563;28;20045;-83
2021/01/31 03:43:01;;;;;;;0.55;0.30;;;;;;;3.31;87.43;91938.22;5071526;28;20416;-83
2021/01/31 03:45:30;;;;;;;;;;;;;;;3.35;86.91;91936.84;5072006;28;20056;-85
2021/01/31 03:48:03;;;;;;;0.38;0.30;;;;;;;3.32;86.42;91930.41;5071219;28;19924;-85
2021/01/31 03:50:31;;;;;;;0.67;0.30;;;;;;;3.39;86.28;91940.56;5049207;28;636311;-84
2021/01/31 03:52:57;;;;;;;0.50;0.30;;;;;;;3.29;86.99;91917.34;5072246;28;20052;-85
2021/01/31 03:55:24;;;;;;;0.85;0.50;;;;;;;3.34;87.50;91933.53;5072236;28;20512;-85
2021/01/31 03:57:52;;;;;;;;;;;;;;;3.34;87.32;91941.13;5072677;28;20048;-85
2021/01/31 04:00:23;;;;;;;8.23;0.50;;;;;;;3.28;86.52;91931.78;5072005;28;19931;-85
2021/01/31 04:02:54;;;;;;;0.70;0.20;;;;;;;3.26;87.06;91931.19;5072239;28;20098;-85
2021/01/31 04:05:22;;;;;;;2.25;0.30;;;;;;;3.33;87.13;91931.16;5072123;28;20051;-84
2021/01/31 04:07:52;;;;;;;0.77;0.40;;;;;;;3.39;84.90;91937.22;5072115;28;20057;-85
2021/01/31 04:10:19;;;;;;;0.50;0.35;;;;;;;3.45;85.48;91932.16;5071583;28;20090;-85
2021/01/31 04:12:51;;;;;;;0.47;0.30;;;;;;;3.45;83.82;91928.81;5071503;28;20045;-85
2021/01/31 04:15:31;;;;;;;1.00;0.50;;;;;;;3.20;85.84;91896.47;5071986;28;20048;-85
2021/01/31 04:17:58;;;;;;;0.30;0.20;;;;;;;3.43;85.98;91938.41;5071980;28;20398;-85
2021/01/31 04:20:24;;;;;;;2.58;0.50;;;;;;;3.43;86.03;91925.72;5071640;28;20048;-85
2021/01/31 04:22:51;;;;;;;0.77;0.55;;;;;;;3.38;86.87;91928.06;5071739;28;20394;-85
2021/01/31 04:25:17;;;;;;;1.00;0.50;;;;;;;3.47;84.58;91919.25;5071447;28;20386;-87
2021/01/31 04:27:44;;;;;;;0.70;0.28;;;;;;;3.42;84.95;91903.84;5071840;28;20748;-86
2021/01/31 04:30:11;;;;;;;3.67;0.30;;;;;;;3.50;83.33;91903.63;5071760;28;20068;-85
2021/01/31 04:32:38;;;;;;;0.75;0.40;;;;;;;3.40;86.17;91893.09;5071424;28;20057;-84
2021/01/31 04:35:06;;;;;;;0.63;0.30;;;;;;;3.26;86.41;91885.50;5071567;28;20095;-85
2021/01/31 04:37:32;;;;;;;1.10;0.43;;;;;;;3.15;86.90;91876.72;5071448;28;20056;-85
2021/01/31 04:39:59;;;;;;;1.63;0.88;;;;;;;3.22;86.82;91871.66;5071158;28;20045;-86
2021/01/31 04:42:26;;;;;;;4.47;0.80;;;;;;;3.16;86.30;91862.28;5071455;28;20049;-85
2021/01/31 04:44:52;;;;;;;1.38;0.55;;;;;;;3.24;86.48;91879.06;5071526;28;20091;-85
2021/01/31 04:47:25;;;;;;;1.58;0.70;;;;;;;3.15;86.95;91871.66;5071251;28;20044;-86
2021/01/31 04:50:01;;;;;;;0.60;0.40;;;;;;;3.17;86.73;91884.94;5071292;28;20049;-86
2021/01/31 04:52:52;;;;;;;1.08;0.73;;;;;;;3.23;85.68;91900.34;5071435;28;20052;-86
2021/01/31 04:55:34;;;;;;;3.67;1.10;;;;;;;3.26;85.73;91907.56;5071237;28;20045;-86
2021/01/31 04:58:10;;;;;;;6.50;2.33;;;;;;;3.26;85.23;91908.34;5071407;28;20059;-86
2021/01/31 05:00:41;;;;;;;6.30;3.10;;;;;;;3.29;86.26;91912.25;5068568;28;20064;-85
2021/01/31 05:03:07;;;;;;;9.73;3.17;;;;;;;3.28;87.19;91910.69;5071138;28;20044;-85
2021/01/31 05:05:38;;;;;;;5.00;1.80;;;;;;;3.11;88.01;91893.34;5071077;28;20045;-85
2021/01/31 05:08:07;;;;;;;2.72;0.75;;;;;;;3.05;86.96;91874.59;5084209;28;20059;-86
2021/01/31 05:10:35;;;;;;;2.58;1.08;;;;;;;3.22;88.02;91914.78;5090741;28;20044;-86
2021/01/31 05:13:17;;;;;;;5.45;1.75;;;;;;;3.05;88.14;91883.94;5090976;28;20048;-88
2021/01/31 05:15:52;;;;;;;7.95;3.13;;;;;;;3.14;87.97;91903.09;5080418;28;20041;-85
2021/01/31 05:18:19;;;;;;;20.35;5.47;;;;;;;3.23;87.90;91915.59;5059445;28;20041;-86
2021/01/31 05:20:51;;;;;;;13.23;4.05;;;;;;;3.21;87.10;91914.00;5059951;28;20047;-85
2021/01/31 05:23:18;;;;;;;8.93;2.88;;;;;;;3.16;88.68;91907.97;5064127;28;20786;-85
2021/01/31 05:25:46;;;;;;;5.82;2.45;;;;;;;3.12;88.42;91899.97;5067593;28;20492;-85
2021/01/31 05:28:13;;;;;;;3.20;1.50;;;;;;;3.17;86.90;91902.69;5076463;28;20082;-84
2021/01/31 05:30:43;;;;;;;7.00;1.35;;;;;;;3.13;87.47;91893.13;5080278;28;20048;-86
2021/01/31 05:33:11;;;;;;;1.65;0.63;;;;;;;3.12;88.06;91894.91;5090836;28;20385;-84
2021/01/31 05:35:42;;;;;;;1.73;0.43;;;;;;;3.13;87.26;91898.19;5087296;28;20051;-84
2021/01/31 05:38:09;;;;;;;2.92;1.45;;;;;;;3.11;88.25;91893.34;5070443;28;20485;-84
2021/01/31 05:40:38;;;;;;;1.35;0.50;;;;;;;3.09;87.31;91895.28;5070334;28;20048;-85
2021/01/31 05:43:07;;;;;;;4.40;1.02;;;;;;;3.15;86.91;91896.25;5070686;28;20044;-87
2021/01/31 05:45:37;;;;;;;0.80;0.43;;;;;;;3.05;87.48;91899.97;5070511;28;20098;-84
2021/01/31 05:48:23;;;;;;;0.40;0.30;;;;;;;3.01;86.92;91898.78;5070537;28;20075;-85
2021/01/31 05:50:51;;;;;;;1.27;0.65;;;;;;;3.14;86.76;91922.63;5070216;28;20109;-86
2021/01/31 05:53:27;;;;;;;1.40;1.15;;;;;;;3.23;86.16;91928.28;5070610;28;20071;-85
2021/01/31 05:56:11;;;;;;;1.17;0.38;;;;;;;3.15;86.98;91936.88;5070403;28;20044;-85
2021/01/31 05:58:38;;;;;;;10.32;2.67;;;;;;;3.18;86.08;91933.91;5070353;28;20056;-86
2021/01/31 06:01:07;;;;;;;8.85;2.38;;;;;;;3.10;87.34;91917.13;5080393;28;20048;-86
2021/01/31 06:03:33;;;;;;;13.20;4.07;;;;;;;2.99;87.73;91922.78;5090957;28;20048;-85
2021/01/31 06:06:09;;;;;;;6.20;3.22;;;;;;;3.11;87.14;91936.47;5090455;28;20519;-85
2021/01/31 06:08:36;;;;;;;3.42;2.25;;;;;;;3.04;88.22;91926.31;5090446;28;20044;-85
2021/01/31 06:11:06;;;;;;;1.42;0.60;;;;;;;2.96;86.84;91923.19;5073725;28;20394;-84
2021/01/31 06:13:34;;;;;;;2.25;0.70;;;;;;;3.07;87.63;91941.13;5070026;28;20068;-87
2021/01/31 06:16:04;;;;;;;4.32;1.48;;;;;;;3.06;87.17;91942.13;5070404;28;20079;-86
2021/01/31 06:18:39;;;;;;;1.60;0.95;;;;;;;3.12;87.39;91940.56;5070337;28;20413;-84
2021/01/31 06:21:10;;;;;;;1.30;1.15;;;;;;;3.15;86.84;91944.47;5070389;28;20094;-85
2021/01/31 06:23:41;;;;;;;2.38;0.80;;;;;;;3.20;84.58;91929.44;5068315;28;20044;-84
2021/01/31 06:26:08;;;;;;;4.53;1.00;;;;;;;3.34;85.14;91948.75;5068054;28;20052;-85
2021/01/31 06:28:43;;;;;;;2.20;1.13;;;;;;;3.26;85.68;91926.13;5070353;28;20048;-85
2021/01/31 06:31:20;;;;;;;2.97;1.40;;;;;;;3.42;84.96;91936.84;5067180;28;20052;-85
2021/01/31 06:33:46;;;;;;;4.13;1.75;;;;;;;3.43;84.27;91939.16;5065878;28;20404;-85
2021/01/31 06:36:33;;;;;;;2.03;1.23;;;;;;;3.47;83.94;91919.25;5073827;28;20060;-85
2021/01/31 06:39:11;;;;;;;2.22;0.98;;;;;;;3.62;83.40;91941.91;5072230;28;20056;-85
2021/01/31 06:41:55;;;;;;;5.90;1.35;;;;;;;3.73;83.42;91946.38;5073599;28;20041;-86
2021/01/31 06:44:31;;;;;;;4.22;1.52;;;;;;;3.85;82.85;91950.81;5075448;28;20097;-86
2021/01/31 06:47:12;;;;;;;5.40;2.08;;;;;;;3.97;80.83;91953.50;5093604;28;20056;-85
2021/01/31 06:49:55;;;;;;;3.75;2.47;;;;;;;4.27;79.97;91965.75;5079372;28;20048;-84
2021/01/31 06:52:32;;;;;;;6.68;2.42;;;;;;;4.46;79.46;91964.09;5071614;28;20061;-84
2021/01/31 06:55:25;;;;;;;6.35;3.33;;;;;;;4.57;79.82;91969.53;5071478;28;20048;-83
2021/01/31 06:58:19;;;;;;;8.60;3.15;;;;;;;4.72;78.87;91979.44;5073618;28;20049;-85
2021/01/31 07:01:07;;;;;;;9.50;3.33;;;;;;;4.90;78.65;91979.50;5069880;28;20094;-85
2021/01/31 07:04:08;;;;;;;5.53;2.65;;;;;;;4.99;79.55;91962.22;5070143;28;20052;-84
2021/01/31 07:07:07;;;;;;;5.90;2.53;;;;;;;5.23;78.71;91972.63;5068704;28;20063;-86
2021/01/31 07:09:45;;;;;;;8.05;2.65;;;;;;;5.27;77.38;91965.38;5073716;28;20044;-85
2021/01/31 07:12:18;;;;;;;4.57;1.98;;;;;;;5.50;76.39;91971.66;5069137;28;20117;-84
2021/01/31 07:14:54;;;;;;;4.10;1.90;;;;;;;5.59;77.07;91990.78;5071983;28;20052;-85
2021/01/31 07:17:30;;;;;;;1.58;0.70;;;;;;;5.65;76.20;91994.25;5074462;28;20059;-84
2021/01/31 07:20:02;;;;;;;3.90;1.40;;;;;;;5.75;75.69;91977.50;5072825;28;20041;-84
2021/01/31 07:22:40;;;;;;;3.88;1.90;;;;;;;5.77;75.41;91964.56;5073131;28;20052;-82
2021/01/31 07:25:12;;;;;;;1.85;0.80;;;;;;;5.80;75.79;91965.91;5072710;28;20036;-83
2021/01/31 07:27:44;;;;;;;1.10;0.50;;;;;;;5.93;75.91;91975.19;5072858;28;20139;-84
2021/01/31 07:30:16;;;;;;;1.20;0.65;;;;;;;6.00;75.83;91970.81;5072680;28;20052;-83
2021/01/31 07:32:56;;;;;;;3.72;1.00;;;;;;;5.92;75.96;91976.94;5072662;28;20052;-83
2021/01/31 07:35:28;;;;;;;3.75;2.30;;;;;;;5.84;76.69;91965.25;5072802;28;20052;-82
2021/01/31 07:38:07;;;;;;;6.38;2.15;;;;;;;5.75;76.88;91962.22;5072795;28;20076;-82
2021/01/31 07:40:34;;;;;;;3.63;1.20;;;;;;;5.78;76.83;91970.44;5076850;28;20040;-83
2021/01/31 07:43:01;;;;;;;4.18;2.22;;;;;;;5.76;76.76;91978.28;5092743;28;20458;-82
2021/01/31 07:45:28;;;;;;;4.85;2.55;;;;;;;5.72;76.89;91974.59;5091622;28;20148;-82
2021/01/31 07:48:27;;;;;;;4.20;2.67;;;;;;;5.70;77.12;91972.25;5092314;28;20052;-83
2021/01/31 07:50:55;;;;;;;14.10;4.97;;;;;;;5.71;76.31;91978.94;5092402;28;20408;-82
2021/01/31 07:53:28;;;;;;;7.13;3.92;;;;;;;5.83;76.38;91986.66;5079221;28;20620;-85
2021/01/31 07:55:54;;;;;;;10.27;3.30;;;;;;;5.80;76.94;91983.75;5072136;28;20056;-83
2021/01/31 07:58:38;;;;;;;;;;;;;;;5.85;76.27;91989.78;5072665;28;20052;-83
2021/01/31 08:01:10;;;;;;;32.45;12.32;;;;;;;5.93;76.97;91987.94;5082368;28;19920;-83
2021/01/31 08:03:38;;;;;;;20.35;8.65;;;;;;;5.93;76.07;91993.03;5092387;28;20048;-83
2021/01/31 08:06:09;;;;;;;11.30;5.30;;;;;;;5.91;76.56;91993.25;5092608;28;20539;-82
2021/01/31 08:08:50;;;;;;;8.05;3.47;;;;;;;6.07;75.86;91989.38;5085017;28;20052;-82
2021/01/31 08:11:53;;;;;;;17.95;6.07;;;;;;;6.17;75.94;91988.13;5072019;28;20098;-82
2021/01/31 08:14:56;;;;;;;8.70;3.60;;;;;;;6.35;75.45;91980.44;5071792;28;20481;-82
2021/01/31 08:17:43;;;;;;;5.90;3.33;;;;;;;6.42;75.01;91977.81;5072321;28;20053;-84
2021/01/31 08:20:41;;;;;;;7.72;3.00;;;;;;;6.64;74.76;91980.72;5051994;28;20409;-83
2021/01/31 08:23:54;;;;;;;6.25;2.47;;;;;;;6.62;74.17;91971.72;4990175;28;20054;-83
2021/01/31 08:26:43;;;;;;;7.35;3.15;;;;;;;6.65;75.28;91982.28;5051712;28;20048;-83
2021/01/31 08:29:28;;;;;;;4.05;1.83;;;;;;;6.68;74.07;91986.94;5072382;28;20048;-81
2021/01/31 08:32:07;;;;;;;4.38;1.90;;;;;;;6.67;74.66;91987.16;5071515;28;20439;-83
2021/01/31 08:35:00;;;;;;;2.92;1.40;;;;;;;6.67;74.41;91982.06;5071493;28;20056;-83
2021/01/31 08:37:29;;;;;;;2.83;1.30;;;;;;;6.54;74.37;91971.00;5071336;28;20447;-84
2021/01/31 08:39:55;;;;;;;2.72;1.08;;;;;;;6.67;74.56;91984.63;5071439;28;20496;-83
2021/01/31 08:42:23;;;;;;;3.55;1.00;;;;;;;6.50;74.77;91971.66;5071525;28;20048;-84
2021/01/31 08:44:56;;;;;;;2.85;1.10;;;;;;;6.59;73.83;91969.59;5071415;28;20051;-84
2021/01/31 08:47:22;;;;;;;1.00;0.60;;;;;;;6.70;74.42;91984.16;5071186;28;20075;-84
2021/01/31 08:50:03;;;;;;;1.20;0.70;;;;;;;6.71;73.60;91987.50;5071602;28;20068;-86
2021/01/31 08:52:29;;;;;;;2.10;1.10;;;;;;;6.58;74.79;91984.13;5071410;28;20055;-85
2021/01/31 08:55:01;;;;;;;2.25;1.40;;;;;;;6.53;74.30;91987.31;5071355;28;20543;-83
2021/01/31 08:57:28;;;;;;;13.07;3.10;;;;;;;6.48;75.15;91976.97;5070908;28;20052;-83
2021/01/31 08:59:54;;;;;;;7.50;2.88;;;;;;;6.54;74.13;91988.88;5071236;28;20045;-83
2021/01/31 09:02:22;;;;;;;;;;;;;;;6.63;73.36;91991.91;5091596;28;20044;-83
2021/01/31 09:04:51;;;;;;;8.75;4.05;;;;;;;6.68;74.21;91983.63;5091277;28;19957;-83
2021/01/31 09:07:25;;;;;;;2.97;1.75;;;;;;;6.63;74.34;91999.53;5091242;28;20055;-80
2021/01/31 09:09:55;;;;;;;3.55;1.20;;;;;;;6.61;73.38;91996.44;5091279;28;20048;-84
2021/01/31 09:12:24;;;;;;;4.95;1.52;;;;;;;6.67;73.74;91998.13;5091088;28;20044;-83
2021/01/31 09:14:53;;;;;;;2.08;1.10;;;;;;;6.67;73.78;91997.38;5090984;28;20044;-83
2021/01/31 09:17:24;;;;;;;1.30;0.60;;;;;;;6.58;72.74;91985.91;5079949;28;20106;-82
2021/01/31 09:20:04;;;;;;;5.97;1.42;;;;;;;6.69;73.63;92005.56;5070758;28;20096;-83
2021/01/31 09:22:30;;;;;;;5.50;3.45;;;;;;;6.68;72.72;92004.03;5070575;28;20056;-82
2021/01/31 09:24:58;;;;;;;;;;;;;;;6.74;71.20;92008.25;5071100;28;20047;-83
2021/01/31 09:27:27;;;;;;;2.83;1.55;;;;;;;6.79;69.52;92010.94;5070492;28;19947;-83
2021/01/31 09:30:00;;;;;;;3.00;1.67;;;;;;;6.84;69.00;92010.28;5070656;28;20040;-83
2021/01/31 09:32:31;;;;;;;2.85;1.83;;;;;;;6.84;71.64;91997.53;5081914;28;20048;-82
2021/01/31 09:34:59;;;;;;;2.25;1.50;;;;;;;6.75;72.41;91994.50;5077943;28;20050;-83
2021/01/31 09:37:28;;;;;;;2.90;1.60;;;;;;;6.73;71.56;91999.06;5067572;28;20497;-83
2021/01/31 09:39:55;;;;;;;2.13;0.93;;;;;;;6.61;72.58;91988.78;5068890;28;20101;-84
2021/01/31 09:42:22;;;;;;;1.80;0.90;;;;;;;6.63;72.83;91988.59;5067446;28;20531;-86
2021/01/31 09:44:52;;;;;;;2.33;1.75;;;;;;;6.66;72.88;91983.03;5087500;28;20118;-82
2021/01/31 09:47:21;;;;;;;7.15;1.75;;;;;;;6.62;73.54;91975.03;5074320;28;20169;-84
2021/01/31 09:49:52;;;;;;;1.48;0.63;;;;;;;6.67;73.28;91995.59;5089806;28;20044;-83
2021/01/31 09:52:18;;;;;;;2.03;1.02;;;;;;;6.65;73.88;91984.81;5075004;28;20392;-83
2021/01/31 09:54:44;;;;;;;;;;;;;;;6.65;73.27;91984.81;5081568;28;20511;-82
2021/01/31 09:57:21;;;;;;;2.92;1.00;;;;;;;6.61;72.85;91980.38;5090814;28;19924;-81
2021/01/31 09:59:48;;;;;;;4.35;1.90;;;;;;;6.70;70.73;91971.41;5090617;28;20154;-83
2021/01/31 10:02:19;;;;;;;3.17;1.73;;;;;;;6.73;72.16;91970.19;5089398;28;20044;-83
2021/01/31 10:04:54;;;;;;;1.95;1.00;;;;;;;6.72;71.62;91969.44;5089997;28;20556;-82
2021/01/31 10:07:30;;;;;;;1.80;0.80;;;;;;;6.70;73.06;91968.09;5090659;28;20077;-81
2021/01/31 10:09:56;;;;;;;9.80;2.60;;;;;;;6.67;74.50;91959.09;5092829;28;20048;-84
2021/01/31 10:12:26;;;;;;;2.28;1.35;;;;;;;6.65;74.89;91961.84;5094645;28;20051;-83
2021/01/31 10:14:55;;;;;;;4.53;1.55;;;;;;;6.53;73.65;91941.38;5094356;28;20051;-83
2021/01/31 10:17:34;;;;;;;4.90;1.77;;;;;;;6.66;74.56;91955.75;5094467;28;20044;-85
2021/01/31 10:20:29;;;;;;;3.75;1.73;;;;;;;6.64;74.87;91960.31;5074944;28;20048;-83
2021/01/31 10:22:59;;;;;;;2.35;1.17;;;;;;;6.65;74.12;91940.66;5073940;28;20053;-82
2021/01/31 10:25:25;;;;;;;2.10;1.42;;;;;;;6.73;74.32;91942.91;5073993;28;20048;-83
2021/01/31 10:27:52;;;;;;;1.45;0.88;;;;;;;6.71;73.58;91949.22;5073742;28;20048;-83
2021/01/31 10:30:23;;;;;;;4.72;1.77;;;;;;;6.71;73.71;91939.03;5074030;28;20390;-84
2021/01/31 10:32:49;;;;;;;4.22;1.92;;;;;;;6.76;73.69;91939.91;5073904;28;20147;-84
2021/01/31 10:35:35;;;;;;;3.75;1.38;;;;;;;6.77;73.21;91940.69;5073725;28;20053;-84
2021/01/31 10:38:26;;;;;;;3.60;1.95;;;;;;;6.81;73.68;91945.16;5073664;28;20114;-82
2021/01/31 10:40:52;;;;;;;5.28;2.40;;;;;;;6.84;72.25;91946.47;5073685;28;20512;-84
2021/01/31 10:43:19;;;;;;;4.75;2.28;;;;;;;6.82;73.54;91943.38;5073827;28;20052;-84
2021/01/31 10:45:46;;;;;;;5.22;2.97;;;;;;;6.92;73.83;91942.84;5073977;28;20055;-84
2021/01/31 10:48:12;;;;;;;3.95;1.30;;;;;;;6.97;74.26;91927.66;5073525;28;20056;-84
2021/01/31 10:50:39;;;;;;;;;;;;;;;7.04;74.60;91928.31;5073868;28;20453;-84
2021/01/31 10:53:05;;;;;;;4.40;1.40;;;;;;;7.03;73.75;91931.88;5073414;28;19920;-86
2021/01/31 10:55:32;;;;;;;2.33;1.20;;;;;;;7.05;72.88;91934.97;5073741;28;20049;-83
2021/01/31 10:57:58;;;;;;;4.82;1.65;;;;;;;7.08;73.16;91936.31;5073590;28;20048;-84
2021/01/31 11:00:24;;;;;;;2.60;1.20;;;;;;;7.15;73.59;91934.47;5078116;28;20044;-84
2021/01/31 11:02:50;;;;;;;;;;;;;;;7.19;72.62;91934.81;5093934;28;20598;-84
2021/01/31 11:05:17;;;;;;;2.10;0.88;;;;;;;7.24;69.32;91926.47;5093465;28;19941;-84
2021/01/31 11:07:44;;;;;;;3.80;1.85;;;;;;;7.44;69.47;91933.81;5093425;28;20055;-85
2021/01/31 11:10:12;;;;;;;3.85;1.27;;;;;;;7.56;72.02;91926.16;5093516;28;20052;-84
2021/01/31 11:12:39;;;;;;;5.07;1.65;;;;;;;7.70;69.60;91927.50;5093227;28;20051;-85
2021/01/31 11:15:06;;;;;;;4.97;2.28;;;;;;;7.80;70.97;91913.34;5093188;28;20488;-84
2021/01/31 11:17:33;;;;;;;3.55;1.92;;;;;;;7.90;68.47;91923.78;5093205;28;20484;-84
2021/01/31 11:19:59;;;;;;;7.95;4.78;;;;;;;7.93;71.70;91910.56;5073493;28;20076;-84
2021/01/31 11:22:25;;;;;;;5.30;2.53;;;;;;;8.14;68.81;91921.19;5074041;28;20052;-84
2021/01/31 11:24:52;;;;;;;5.15;1.92;;;;;;;8.18;69.61;91903.63;5073044;28;20118;-85
2021/01/31 11:27:18;;;;;;;3.47;1.13;;;;;;;8.24;69.16;91920.63;5073229;28;20055;-84
2021/01/31 11:29:45;;;;;;;4.70;1.80;;;;;;;8.09;70.78;91908.28;5073007;28;20056;-85
2021/01/31 11:32:11;;;;;;;;;;;;;;;8.20;67.41;91909.28;5073177;28;20044;-85
2021/01/31 11:34:37;;;;;;;3.03;1.33;;;;;;;8.13;68.90;91904.28;5072700;28;19932;-85
2021/01/31 11:37:03;;;;;;;;;;;;;;;8.11;71.06;91890.97;5073449;28;20045;-85
2021/01/31 11:39:29;;;;;;;7.97;3.47;;;;;;;8.14;71.67;91886.16;5072761;28;19921;-86
2021/01/31 11:41:57;;;;;;;5.55;3.10;;;;;;;8.21;70.98;91865.56;5072775;28;20056;-85
2021/01/31 11:44:24;;;;;;;6.30;2.35;;;;;;;8.55;70.78;91891.28;5072663;28;20127;-85
2021/01/31 11:46:50;;;;;;;11.13;3.45;;;;;;;8.58;68.87;91879.81;5072284;28;20044;-86
2021/01/31 11:49:16;;;;;;;11.13;2.78;;;;;;;8.53;69.48;91866.91;5072548;28;20102;-85
2021/01/31 11:51:43;;;;;;;28.77;2.70;;;;;;;8.55;70.54;91863.13;5072333;28;20053;-85
2021/01/31 11:54:09;;;;;;;5.78;2.05;;;;;;;8.67;69.86;91862.28;5072339;28;20485;-84
2021/01/31 11:56:36;;;;;;;5.18;1.88;;;;;;;8.71;69.58;91865.94;5072361;28;20048;-85
2021/01/31 11:59:04;;;;;;;10.23;3.35;;;;;;;8.65;69.45;91849.72;5072664;28;20044;-85
2021/01/31 12:01:30;;;;;;;10.57;2.42;;;;;;;8.72;68.57;91871.81;5072049;28;20056;-84
2021/01/31 12:03:56;;;;;;;;;;;;;;;8.86;69.52;91859.50;5072811;28;20055;-84
2021/01/31 12:06:22;;;;;;;5.53;2.40;;;;;;;8.79;68.14;91860.44;5072273;28;20372;-85
2021/01/31 12:08:48;;;;;;;4.03;2.20;;;;;;;8.80;68.61;91851.75;5071943;28;20048;-84